sensor_id;sensor_type;location;lat;lon;timestamp;P1;durP1;ratioP1;P2;durP2;ratioP2
20271;SDS011;10295;49.812;9.866;2023-05-10T00:01:49;7.37;;;3.10;;
20271;SDS011;10295;49.812;9.866;2023-05-10T00:04:16;8.30;;;2.97;;
20271;SDS011;10295;49.812;9.866;2023-05-10T00:06:44;7.27;;;3.30;;
20271;SDS011;10295;49.812;9.866;2023-05-10T00:09:11;10.33;;;3.53;;
20271;SDS011;10295;49.812;9.866;2023-05-10T00:11:38;8.93;;;3.10;;
20271;SDS011;10295;49.812;9.866;2023-05-10T00:14:05;7.97;;;3.23;;
20271;SDS011;10295;49.812;9.866;2023-05-10T00:16:32;8.23;;;3.20;;
20271;SDS011;10295;49.812;9.866;2023-05-10T00:18:59;8.13;;;3.10;;
20271;SDS011;10295;49.812;9.866;2023-05-10T00:21:27;7.50;;;3.37;;
20271;SDS011;10295;49.812;9.866;2023-05-10T00:23:54;8.43;;;3.40;;
20271;SDS011;10295;49.812;9.866;2023-05-10T00:26:21;7.70;;;3.20;;
20271;SDS011;10295;49.812;9.866;2023-05-10T00:28:48;7.63;;;3.50;;
20271;SDS011;10295;49.812;9.866;2023-05-10T00:31:15;10.37;;;3.03;;
20271;SDS011;10295;49.812;9.866;2023-05-10T00:33:43;9.23;;;3.60;;
20271;SDS011;10295;49.812;9.866;2023-05-10T00:36:10;7.07;;;3.20;;
20271;SDS011;10295;49.812;9.866;2023-05-10T00:38:37;7.03;;;3.40;;
20271;SDS011;10295;49.812;9.866;2023-05-10T00:41:04;8.03;;;3.47;;
20271;SDS011;10295;49.812;9.866;2023-05-10T00:43:31;9.33;;;3.40;;
20271;SDS011;10295;49.812;9.866;2023-05-10T00:45:58;7.17;;;3.60;;
20271;SDS011;10295;49.812;9.866;2023-05-10T00:48:26;7.73;;;3.50;;
20271;SDS011;10295;49.812;9.866;2023-05-10T00:50:55;8.50;;;3.60;;
20271;SDS011;10295;49.812;9.866;2023-05-10T00:53:22;8.57;;;3.60;;
20271;SDS011;10295;49.812;9.866;2023-05-10T00:55:50;8.50;;;3.77;;
20271;SDS011;10295;49.812;9.866;2023-05-10T00:58:17;8.13;;;3.60;;
20271;SDS011;10295;49.812;9.866;2023-05-10T01:00:44;8.87;;;3.50;;
20271;SDS011;10295;49.812;9.866;2023-05-10T01:03:14;7.70;;;3.77;;
20271;SDS011;10295;49.812;9.866;2023-05-10T01:05:41;9.60;;;3.50;;
20271;SDS011;10295;49.812;9.866;2023-05-10T01:08:08;7.77;;;3.60;;
20271;SDS011;10295;49.812;9.866;2023-05-10T01:10:36;9.07;;;3.77;;
20271;SDS011;10295;49.812;9.866;2023-05-10T01:13:03;7.40;;;3.73;;
20271;SDS011;10295;49.812;9.866;2023-05-10T01:15:30;8.13;;;3.57;;
20271;SDS011;10295;49.812;9.866;2023-05-10T01:17:58;9.07;;;2.93;;
20271;SDS011;10295;49.812;9.866;2023-05-10T01:20:25;7.90;;;3.43;;
20271;SDS011;10295;49.812;9.866;2023-05-10T01:23:02;11.30;;;3.20;;
20271;SDS011;10295;49.812;9.866;2023-05-10T01:41:16;6.03;;;2.50;;
20271;SDS011;10295;49.812;9.866;2023-05-10T01:44:05;4.43;;;1.50;;
20271;SDS011;10295;49.812;9.866;2023-05-10T01:46:36;6.23;;;1.83;;
20271;SDS011;10295;49.812;9.866;2023-05-10T01:49:08;5.93;;;1.80;;
20271;SDS011;10295;49.812;9.866;2023-05-10T01:51:45;3.57;;;1.60;;
20271;SDS011;10295;49.812;9.866;2023-05-10T01:54:14;5.83;;;1.80;;
20271;SDS011;10295;49.812;9.866;2023-05-10T01:56:44;4.40;;;1.60;;
20271;SDS011;10295;49.812;9.866;2023-05-10T01:59:12;5.23;;;1.30;;
20271;SDS011;10295;49.812;9.866;2023-05-10T02:01:40;3.00;;;1.40;;
20271;SDS011;10295;49.812;9.866;2023-05-10T02:04:08;8.73;;;1.30;;
20271;SDS011;10295;49.812;9.866;2023-05-10T02:06:36;4.87;;;1.23;;
20271;SDS011;10295;49.812;9.866;2023-05-10T02:09:04;3.43;;;1.40;;
20271;SDS011;10295;49.812;9.866;2023-05-10T02:11:32;2.63;;;1.30;;
20271;SDS011;10295;49.812;9.866;2023-05-10T02:14:00;4.20;;;1.70;;
20271;SDS011;10295;49.812;9.866;2023-05-10T02:16:28;3.00;;;1.40;;
20271;SDS011;10295;49.812;9.866;2023-05-10T02:18:57;4.63;;;1.60;;
20271;SDS011;10295;49.812;9.866;2023-05-10T02:21:25;4.13;;;1.20;;
20271;SDS011;10295;49.812;9.866;2023-05-10T02:23:52;2.10;;;1.10;;
20271;SDS011;10295;49.812;9.866;2023-05-10T02:26:20;11.40;;;1.30;;
20271;SDS011;10295;49.812;9.866;2023-05-10T02:28:48;4.80;;;1.10;;
20271;SDS011;10295;49.812;9.866;2023-05-10T02:31:16;3.00;;;1.20;;
20271;SDS011;10295;49.812;9.866;2023-05-10T02:33:43;1.17;;;0.90;;
20271;SDS011;10295;49.812;9.866;2023-05-10T02:36:11;3.67;;;1.10;;
20271;SDS011;10295;49.812;9.866;2023-05-10T02:38:39;5.23;;;1.20;;
20271;SDS011;10295;49.812;9.866;2023-05-10T02:41:07;3.47;;;1.10;;
20271;SDS011;10295;49.812;9.866;2023-05-10T02:43:35;3.00;;;1.17;;
20271;SDS011;10295;49.812;9.866;2023-05-10T02:46:04;6.00;;;1.17;;
20271;SDS011;10295;49.812;9.866;2023-05-10T02:48:31;2.70;;;1.20;;
20271;SDS011;10295;49.812;9.866;2023-05-10T02:51:00;2.20;;;1.00;;
20271;SDS011;10295;49.812;9.866;2023-05-10T02:53:31;3.83;;;1.20;;
20271;SDS011;10295;49.812;9.866;2023-05-10T02:56:00;3.73;;;1.10;;
20271;SDS011;10295;49.812;9.866;2023-05-10T02:58:29;4.20;;;1.17;;
20271;SDS011;10295;49.812;9.866;2023-05-10T03:00:57;4.10;;;1.00;;
20271;SDS011;10295;49.812;9.866;2023-05-10T03:03:24;4.10;;;1.10;;
20271;SDS011;10295;49.812;9.866;2023-05-10T03:05:51;2.20;;;1.17;;
20271;SDS011;10295;49.812;9.866;2023-05-10T03:08:22;1.47;;;0.90;;
20271;SDS011;10295;49.812;9.866;2023-05-10T03:11:16;2.17;;;0.97;;
20271;SDS011;10295;49.812;9.866;2023-05-10T03:18:54;3.40;;;0.87;;
20271;SDS011;10295;49.812;9.866;2023-05-10T03:21:23;1.93;;;0.90;;
20271;SDS011;10295;49.812;9.866;2023-05-10T03:23:56;3.27;;;1.20;;
20271;SDS011;10295;49.812;9.866;2023-05-10T03:26:28;1.90;;;0.93;;
20271;SDS011;10295;49.812;9.866;2023-05-10T03:28:56;1.73;;;0.90;;
20271;SDS011;10295;49.812;9.866;2023-05-10T03:31:25;1.73;;;1.00;;
20271;SDS011;10295;49.812;9.866;2023-05-10T03:33:53;1.40;;;0.90;;
20271;SDS011;10295;49.812;9.866;2023-05-10T03:36:20;1.40;;;1.00;;
20271;SDS011;10295;49.812;9.866;2023-05-10T03:38:47;1.60;;;1.00;;
20271;SDS011;10295;49.812;9.866;2023-05-10T03:41:14;2.67;;;1.17;;
20271;SDS011;10295;49.812;9.866;2023-05-10T03:43:42;3.30;;;1.20;;
20271;SDS011;10295;49.812;9.866;2023-05-10T03:46:09;5.00;;;1.20;;
20271;SDS011;10295;49.812;9.866;2023-05-10T03:48:36;2.57;;;1.20;;
20271;SDS011;10295;49.812;9.866;2023-05-10T03:51:03;2.93;;;1.37;;
20271;SDS011;10295;49.812;9.866;2023-05-10T03:53:31;3.10;;;1.30;;
20271;SDS011;10295;49.812;9.866;2023-05-10T03:55:58;4.00;;;1.30;;
20271;SDS011;10295;49.812;9.866;2023-05-10T03:58:25;4.63;;;1.40;;
20271;SDS011;10295;49.812;9.866;2023-05-10T04:00:52;4.97;;;1.40;;
20271;SDS011;10295;49.812;9.866;2023-05-10T04:03:19;5.20;;;1.60;;
20271;SDS011;10295;49.812;9.866;2023-05-10T04:05:47;2.90;;;1.40;;
20271;SDS011;10295;49.812;9.866;2023-05-10T04:08:14;5.47;;;1.23;;
20271;SDS011;10295;49.812;9.866;2023-05-10T04:10:42;7.40;;;1.50;;
20271;SDS011;10295;49.812;9.866;2023-05-10T04:13:09;2.27;;;1.20;;
20271;SDS011;10295;49.812;9.866;2023-05-10T04:15:37;2.93;;;1.20;;
20271;SDS011;10295;49.812;9.866;2023-05-10T04:18:04;4.40;;;1.40;;
20271;SDS011;10295;49.812;9.866;2023-05-10T04:20:34;3.60;;;1.30;;
20271;SDS011;10295;49.812;9.866;2023-05-10T04:23:01;4.27;;;1.43;;
20271;SDS011;10295;49.812;9.866;2023-05-10T04:25:28;4.03;;;1.53;;
20271;SDS011;10295;49.812;9.866;2023-05-10T04:27:55;4.83;;;1.53;;
20271;SDS011;10295;49.812;9.866;2023-05-10T04:30:22;9.63;;;1.60;;
20271;SDS011;10295;49.812;9.866;2023-05-10T04:32:49;4.77;;;1.43;;
20271;SDS011;10295;49.812;9.866;2023-05-10T04:35:17;10.93;;;1.60;;
20271;SDS011;10295;49.812;9.866;2023-05-10T04:37:44;5.57;;;1.30;;
20271;SDS011;10295;49.812;9.866;2023-05-10T04:40:11;5.10;;;1.60;;
20271;SDS011;10295;49.812;9.866;2023-05-10T04:42:42;2.80;;;1.57;;
20271;SDS011;10295;49.812;9.866;2023-05-10T04:45:10;4.80;;;1.60;;
20271;SDS011;10295;49.812;9.866;2023-05-10T04:47:37;2.73;;;1.40;;
20271;SDS011;10295;49.812;9.866;2023-05-10T04:50:05;3.33;;;1.40;;
20271;SDS011;10295;49.812;9.866;2023-05-10T04:52:32;6.00;;;1.50;;
20271;SDS011;10295;49.812;9.866;2023-05-10T04:54:59;4.73;;;1.67;;
20271;SDS011;10295;49.812;9.866;2023-05-10T04:57:27;5.00;;;1.50;;
20271;SDS011;10295;49.812;9.866;2023-05-10T04:59:54;6.37;;;1.50;;
20271;SDS011;10295;49.812;9.866;2023-05-10T05:02:21;3.33;;;1.53;;
20271;SDS011;10295;49.812;9.866;2023-05-10T05:04:49;2.73;;;1.30;;
20271;SDS011;10295;49.812;9.866;2023-05-10T05:07:17;5.73;;;1.47;;
20271;SDS011;10295;49.812;9.866;2023-05-10T05:09:44;6.37;;;1.40;;
20271;SDS011;10295;49.812;9.866;2023-05-10T05:12:11;4.83;;;1.50;;
20271;SDS011;10295;49.812;9.866;2023-05-10T05:14:40;3.37;;;1.47;;
20271;SDS011;10295;49.812;9.866;2023-05-10T05:17:07;4.13;;;1.37;;
20271;SDS011;10295;49.812;9.866;2023-05-10T05:19:34;7.90;;;1.60;;
20271;SDS011;10295;49.812;9.866;2023-05-10T05:22:02;3.03;;;1.20;;
20271;SDS011;10295;49.812;9.866;2023-05-10T05:24:29;3.87;;;1.30;;
20271;SDS011;10295;49.812;9.866;2023-05-10T05:27:01;4.37;;;1.60;;
20271;SDS011;10295;49.812;9.866;2023-05-10T05:29:29;6.80;;;1.40;;
20271;SDS011;10295;49.812;9.866;2023-05-10T05:31:56;5.63;;;1.77;;
20271;SDS011;10295;49.812;9.866;2023-05-10T05:34:23;3.40;;;1.50;;
20271;SDS011;10295;49.812;9.866;2023-05-10T05:36:51;2.33;;;1.27;;
20271;SDS011;10295;49.812;9.866;2023-05-10T05:39:18;4.77;;;1.37;;
20271;SDS011;10295;49.812;9.866;2023-05-10T05:41:45;4.13;;;1.30;;
20271;SDS011;10295;49.812;9.866;2023-05-10T05:44:12;3.50;;;1.30;;
20271;SDS011;10295;49.812;9.866;2023-05-10T05:46:39;2.03;;;1.20;;
20271;SDS011;10295;49.812;9.866;2023-05-10T05:49:07;5.03;;;1.50;;
20271;SDS011;10295;49.812;9.866;2023-05-10T05:51:34;3.70;;;1.40;;
20271;SDS011;10295;49.812;9.866;2023-05-10T05:54:01;5.50;;;1.40;;
20271;SDS011;10295;49.812;9.866;2023-05-10T05:56:30;5.33;;;1.40;;
20271;SDS011;10295;49.812;9.866;2023-05-10T05:58:57;2.17;;;1.30;;
20271;SDS011;10295;49.812;9.866;2023-05-10T06:01:24;3.27;;;1.30;;
20271;SDS011;10295;49.812;9.866;2023-05-10T06:03:51;3.60;;;1.33;;
20271;SDS011;10295;49.812;9.866;2023-05-10T06:06:19;3.93;;;1.30;;
20271;SDS011;10295;49.812;9.866;2023-05-10T06:08:46;3.63;;;1.50;;
20271;SDS011;10295;49.812;9.866;2023-05-10T06:11:13;3.97;;;1.30;;
20271;SDS011;10295;49.812;9.866;2023-05-10T06:13:40;3.53;;;1.50;;
20271;SDS011;10295;49.812;9.866;2023-05-10T06:16:08;3.47;;;1.37;;
20271;SDS011;10295;49.812;9.866;2023-05-10T06:18:35;2.70;;;1.10;;
20271;SDS011;10295;49.812;9.866;2023-05-10T06:21:03;7.03;;;1.50;;
20271;SDS011;10295;49.812;9.866;2023-05-10T06:23:30;3.33;;;1.37;;
20271;SDS011;10295;49.812;9.866;2023-05-10T06:25:57;4.07;;;1.40;;
20271;SDS011;10295;49.812;9.866;2023-05-10T06:28:24;6.07;;;1.40;;
20271;SDS011;10295;49.812;9.866;2023-05-10T06:30:51;4.80;;;1.23;;
20271;SDS011;10295;49.812;9.866;2023-05-10T06:33:18;6.03;;;1.30;;
20271;SDS011;10295;49.812;9.866;2023-05-10T06:35:45;4.43;;;1.50;;
20271;SDS011;10295;49.812;9.866;2023-05-10T06:38:13;6.60;;;1.30;;
20271;SDS011;10295;49.812;9.866;2023-05-10T06:40:43;4.07;;;1.13;;
20271;SDS011;10295;49.812;9.866;2023-05-10T06:43:10;7.00;;;1.50;;
20271;SDS011;10295;49.812;9.866;2023-05-10T06:45:37;3.30;;;1.27;;
20271;SDS011;10295;49.812;9.866;2023-05-10T06:48:04;4.60;;;1.50;;
20271;SDS011;10295;49.812;9.866;2023-05-10T06:50:32;7.20;;;1.70;;
20271;SDS011;10295;49.812;9.866;2023-05-10T06:52:59;5.57;;;1.53;;
20271;SDS011;10295;49.812;9.866;2023-05-10T06:55:28;4.20;;;1.50;;
20271;SDS011;10295;49.812;9.866;2023-05-10T06:57:55;3.80;;;1.40;;
20271;SDS011;10295;49.812;9.866;2023-05-10T07:00:22;5.00;;;1.63;;
20271;SDS011;10295;49.812;9.866;2023-05-10T07:02:49;6.87;;;1.70;;
20271;SDS011;10295;49.812;9.866;2023-05-10T07:05:17;6.57;;;1.90;;
20271;SDS011;10295;49.812;9.866;2023-05-10T07:07:45;4.40;;;1.70;;
20271;SDS011;10295;49.812;9.866;2023-05-10T07:10:12;8.10;;;1.70;;
20271;SDS011;10295;49.812;9.866;2023-05-10T07:12:39;5.03;;;1.67;;
20271;SDS011;10295;49.812;9.866;2023-05-10T07:15:07;3.70;;;1.50;;
20271;SDS011;10295;49.812;9.866;2023-05-10T07:17:34;7.40;;;1.77;;
20271;SDS011;10295;49.812;9.866;2023-05-10T07:20:01;5.20;;;1.57;;
20271;SDS011;10295;49.812;9.866;2023-05-10T07:22:29;8.93;;;1.57;;
20271;SDS011;10295;49.812;9.866;2023-05-10T07:24:57;7.23;;;1.83;;
20271;SDS011;10295;49.812;9.866;2023-05-10T07:27:24;6.47;;;1.60;;
20271;SDS011;10295;49.812;9.866;2023-05-10T07:29:52;7.70;;;1.60;;
20271;SDS011;10295;49.812;9.866;2023-05-10T07:32:19;5.07;;;1.63;;
20271;SDS011;10295;49.812;9.866;2023-05-10T07:34:46;5.80;;;1.60;;
20271;SDS011;10295;49.812;9.866;2023-05-10T07:37:13;6.50;;;1.70;;
20271;SDS011;10295;49.812;9.866;2023-05-10T07:39:40;9.20;;;1.63;;
20271;SDS011;10295;49.812;9.866;2023-05-10T07:42:07;5.97;;;1.40;;
20271;SDS011;10295;49.812;9.866;2023-05-10T07:44:35;6.85;;;1.70;;
20271;SDS011;10295;49.812;9.866;2023-05-10T07:47:02;6.18;;;1.52;;
20271;SDS011;10295;49.812;9.866;2023-05-10T07:49:29;11.13;;;2.03;;
20271;SDS011;10295;49.812;9.866;2023-05-10T07:51:56;6.72;;;1.63;;
20271;SDS011;10295;49.812;9.866;2023-05-10T07:54:23;8.02;;;1.45;;
20271;SDS011;10295;49.812;9.866;2023-05-10T07:56:51;5.55;;;1.40;;
20271;SDS011;10295;49.812;9.866;2023-05-10T07:59:18;7.18;;;1.75;;
20271;SDS011;10295;49.812;9.866;2023-05-10T08:01:45;7.95;;;1.48;;
20271;SDS011;10295;49.812;9.866;2023-05-10T08:04:13;6.28;;;1.65;;
20271;SDS011;10295;49.812;9.866;2023-05-10T08:06:40;4.65;;;1.40;;
20271;SDS011;10295;49.812;9.866;2023-05-10T08:09:07;8.05;;;1.73;;
20271;SDS011;10295;49.812;9.866;2023-05-10T08:11:35;6.85;;;1.70;;
20271;SDS011;10295;49.812;9.866;2023-05-10T08:14:02;8.43;;;1.33;;
20271;SDS011;10295;49.812;9.866;2023-05-10T08:16:29;7.20;;;1.52;;
20271;SDS011;10295;49.812;9.866;2023-05-10T08:18:56;6.78;;;1.65;;
20271;SDS011;10295;49.812;9.866;2023-05-10T08:21:24;5.53;;;1.50;;
20271;SDS011;10295;49.812;9.866;2023-05-10T08:23:52;3.85;;;1.48;;
20271;SDS011;10295;49.812;9.866;2023-05-10T08:26:19;5.00;;;1.20;;
20271;SDS011;10295;49.812;9.866;2023-05-10T08:28:47;6.28;;;1.20;;
20271;SDS011;10295;49.812;9.866;2023-05-10T08:31:14;4.45;;;1.15;;
20271;SDS011;10295;49.812;9.866;2023-05-10T08:33:42;6.43;;;1.70;;
20271;SDS011;10295;49.812;9.866;2023-05-10T08:36:10;5.43;;;1.40;;
20271;SDS011;10295;49.812;9.866;2023-05-10T08:38:37;5.55;;;1.30;;
20271;SDS011;10295;49.812;9.866;2023-05-10T08:41:04;5.88;;;1.40;;
20271;SDS011;10295;49.812;9.866;2023-05-10T08:43:32;4.47;;;1.17;;
20271;SDS011;10295;49.812;9.866;2023-05-10T08:46:00;7.18;;;1.40;;
20271;SDS011;10295;49.812;9.866;2023-05-10T08:48:30;6.30;;;1.42;;
20271;SDS011;10295;49.812;9.866;2023-05-10T08:50:59;5.97;;;1.25;;
20271;SDS011;10295;49.812;9.866;2023-05-10T08:53:28;7.57;;;1.58;;
20271;SDS011;10295;49.812;9.866;2023-05-10T08:55:56;5.10;;;1.42;;
20271;SDS011;10295;49.812;9.866;2023-05-10T08:58:24;5.45;;;1.50;;
20271;SDS011;10295;49.812;9.866;2023-05-10T09:00:52;4.97;;;1.40;;
20271;SDS011;10295;49.812;9.866;2023-05-10T09:03:19;5.55;;;1.50;;
20271;SDS011;10295;49.812;9.866;2023-05-10T09:05:47;5.63;;;1.35;;
20271;SDS011;10295;49.812;9.866;2023-05-10T09:08:15;6.57;;;1.63;;
20271;SDS011;10295;49.812;9.866;2023-05-10T09:10:45;6.30;;;1.40;;
20271;SDS011;10295;49.812;9.866;2023-05-10T09:13:14;4.03;;;1.42;;
20271;SDS011;10295;49.812;9.866;2023-05-10T09:15:42;7.57;;;1.70;;
20271;SDS011;10295;49.812;9.866;2023-05-10T09:18:10;6.70;;;1.90;;
20271;SDS011;10295;49.812;9.866;2023-05-10T09:20:37;6.03;;;1.73;;
20271;SDS011;10295;49.812;9.866;2023-05-10T09:23:04;8.25;;;1.70;;
20271;SDS011;10295;49.812;9.866;2023-05-10T09:25:32;4.90;;;1.50;;
20271;SDS011;10295;49.812;9.866;2023-05-10T09:28:03;7.40;;;1.70;;
20271;SDS011;10295;49.812;9.866;2023-05-10T09:30:33;5.18;;;1.80;;
20271;SDS011;10295;49.812;9.866;2023-05-10T09:33:00;5.97;;;1.70;;
20271;SDS011;10295;49.812;9.866;2023-05-10T09:35:28;9.10;;;1.65;;
20271;SDS011;10295;49.812;9.866;2023-05-10T09:38:02;7.68;;;2.03;;
20271;SDS011;10295;49.812;9.866;2023-05-10T09:40:30;5.25;;;1.50;;
20271;SDS011;10295;49.812;9.866;2023-05-10T09:43:02;3.60;;;1.50;;
20271;SDS011;10295;49.812;9.866;2023-05-10T09:45:30;6.00;;;1.45;;
20271;SDS011;10295;49.812;9.866;2023-05-10T09:47:57;4.38;;;1.45;;
20271;SDS011;10295;49.812;9.866;2023-05-10T09:50:25;8.45;;;1.70;;
20271;SDS011;10295;49.812;9.866;2023-05-10T09:52:57;5.20;;;1.42;;
20271;SDS011;10295;49.812;9.866;2023-05-10T09:55:25;5.22;;;1.40;;
20271;SDS011;10295;49.812;9.866;2023-05-10T09:57:59;6.80;;;1.40;;
20271;SDS011;10295;49.812;9.866;2023-05-10T10:00:27;6.45;;;1.40;;
20271;SDS011;10295;49.812;9.866;2023-05-10T10:02:56;5.88;;;1.30;;
20271;SDS011;10295;49.812;9.866;2023-05-10T10:05:30;2.85;;;1.10;;
20271;SDS011;10295;49.812;9.866;2023-05-10T10:07:59;4.45;;;1.20;;
20271;SDS011;10295;49.812;9.866;2023-05-10T10:10:27;5.63;;;1.20;;
20271;SDS011;10295;49.812;9.866;2023-05-10T10:12:54;4.78;;;1.20;;
20271;SDS011;10295;49.812;9.866;2023-05-10T10:15:22;4.07;;;1.30;;
20271;SDS011;10295;49.812;9.866;2023-05-10T10:17:49;4.05;;;1.30;;
20271;SDS011;10295;49.812;9.866;2023-05-10T10:20:17;6.53;;;1.40;;
20271;SDS011;10295;49.812;9.866;2023-05-10T10:22:46;3.60;;;1.20;;
20271;SDS011;10295;49.812;9.866;2023-05-10T10:25:14;7.13;;;1.10;;
20271;SDS011;10295;49.812;9.866;2023-05-10T10:30:19;5.68;;;1.13;;
20271;SDS011;10295;49.812;9.866;2023-05-10T10:32:56;3.65;;;1.10;;
20271;SDS011;10295;49.812;9.866;2023-05-10T10:35:35;2.47;;;1.00;;
20271;SDS011;10295;49.812;9.866;2023-05-10T10:38:03;6.55;;;1.05;;
20271;SDS011;10295;49.812;9.866;2023-05-10T10:40:31;2.83;;;1.00;;
20271;SDS011;10295;49.812;9.866;2023-05-10T10:46:15;3.30;;;1.20;;
20271;SDS011;10295;49.812;9.866;2023-05-10T10:48:50;4.35;;;1.10;;
20271;SDS011;10295;49.812;9.866;2023-05-10T10:51:38;7.20;;;1.25;;
20271;SDS011;10295;49.812;9.866;2023-05-10T10:54:09;2.63;;;1.00;;
20271;SDS011;10295;49.812;9.866;2023-05-10T10:56:36;2.70;;;0.90;;
20271;SDS011;10295;49.812;9.866;2023-05-10T10:59:03;4.28;;;1.10;;
20271;SDS011;10295;49.812;9.866;2023-05-10T11:01:34;1.92;;;0.90;;
20271;SDS011;10295;49.812;9.866;2023-05-10T11:06:32;3.25;;;0.93;;
20271;SDS011;10295;49.812;9.866;2023-05-10T11:09:04;4.13;;;0.98;;
20271;SDS011;10295;49.812;9.866;2023-05-10T11:11:32;2.90;;;1.02;;
20271;SDS011;10295;49.812;9.866;2023-05-10T11:14:04;8.63;;;1.17;;
20271;SDS011;10295;49.812;9.866;2023-05-10T11:16:44;3.35;;;1.10;;
20271;SDS011;10295;49.812;9.866;2023-05-10T11:19:12;3.10;;;1.30;;
20271;SDS011;10295;49.812;9.866;2023-05-10T11:21:46;2.92;;;1.10;;
20271;SDS011;10295;49.812;9.866;2023-05-10T11:24:18;3.65;;;1.10;;
20271;SDS011;10295;49.812;9.866;2023-05-10T11:26:45;4.63;;;1.10;;
20271;SDS011;10295;49.812;9.866;2023-05-10T11:29:13;3.35;;;1.00;;
20271;SDS011;10295;49.812;9.866;2023-05-10T11:31:43;3.30;;;1.00;;
20271;SDS011;10295;49.812;9.866;2023-05-10T11:34:11;4.90;;;1.30;;
20271;SDS011;10295;49.812;9.866;2023-05-10T11:36:40;4.50;;;1.20;;
20271;SDS011;10295;49.812;9.866;2023-05-10T11:39:07;4.30;;;1.10;;
20271;SDS011;10295;49.812;9.866;2023-05-10T11:41:35;3.42;;;1.00;;
20271;SDS011;10295;49.812;9.866;2023-05-10T11:44:03;4.05;;;1.10;;
20271;SDS011;10295;49.812;9.866;2023-05-10T11:46:30;3.92;;;1.05;;
20271;SDS011;10295;49.812;9.866;2023-05-10T11:48:58;3.92;;;1.00;;
20271;SDS011;10295;49.812;9.866;2023-05-10T11:51:27;2.35;;;1.00;;
20271;SDS011;10295;49.812;9.866;2023-05-10T11:53:55;2.83;;;1.00;;
20271;SDS011;10295;49.812;9.866;2023-05-10T11:56:23;4.00;;;1.10;;
20271;SDS011;10295;49.812;9.866;2023-05-10T11:58:53;3.85;;;1.10;;
20271;SDS011;10295;49.812;9.866;2023-05-10T12:01:22;7.22;;;1.10;;
20271;SDS011;10295;49.812;9.866;2023-05-10T12:03:50;5.88;;;1.20;;
20271;SDS011;10295;49.812;9.866;2023-05-10T12:06:18;3.97;;;1.00;;
20271;SDS011;10295;49.812;9.866;2023-05-10T12:08:47;17.38;;;1.80;;
20271;SDS011;10295;49.812;9.866;2023-05-10T12:11:18;15.43;;;1.50;;
20271;SDS011;10295;49.812;9.866;2023-05-10T12:13:47;11.35;;;1.52;;
20271;SDS011;10295;49.812;9.866;2023-05-10T12:16:19;3.05;;;1.23;;
20271;SDS011;10295;49.812;9.866;2023-05-10T12:18:50;2.70;;;0.93;;
20271;SDS011;10295;49.812;9.866;2023-05-10T12:21:18;4.28;;;1.10;;
20271;SDS011;10295;49.812;9.866;2023-05-10T12:23:46;4.45;;;1.08;;
20271;SDS011;10295;49.812;9.866;2023-05-10T12:26:14;2.20;;;1.00;;
20271;SDS011;10295;49.812;9.866;2023-05-10T12:28:41;3.40;;;1.17;;
20271;SDS011;10295;49.812;9.866;2023-05-10T12:31:08;5.07;;;1.20;;
20271;SDS011;10295;49.812;9.866;2023-05-10T12:33:39;2.40;;;0.90;;
20271;SDS011;10295;49.812;9.866;2023-05-10T12:36:10;4.93;;;1.10;;
20271;SDS011;10295;49.812;9.866;2023-05-10T12:38:38;5.68;;;0.90;;
20271;SDS011;10295;49.812;9.866;2023-05-10T12:41:10;8.00;;;1.10;;
20271;SDS011;10295;49.812;9.866;2023-05-10T12:43:37;3.03;;;0.90;;
20271;SDS011;10295;49.812;9.866;2023-05-10T12:48:32;8.30;;;1.10;;
20271;SDS011;10295;49.812;9.866;2023-05-10T12:51:00;4.95;;;0.98;;
20271;SDS011;10295;49.812;9.866;2023-05-10T12:53:28;4.27;;;1.10;;
20271;SDS011;10295;49.812;9.866;2023-05-10T12:55:55;5.10;;;1.30;;
20271;SDS011;10295;49.812;9.866;2023-05-10T12:58:22;9.37;;;1.70;;
20271;SDS011;10295;49.812;9.866;2023-05-10T13:01:00;4.97;;;1.20;;
20271;SDS011;10295;49.812;9.866;2023-05-10T13:03:27;9.13;;;1.67;;
20271;SDS011;10295;49.812;9.866;2023-05-10T13:05:54;6.23;;;1.70;;
20271;SDS011;10295;49.812;9.866;2023-05-10T13:08:22;4.77;;;1.80;;
20271;SDS011;10295;49.812;9.866;2023-05-10T13:10:49;7.53;;;1.87;;
20271;SDS011;10295;49.812;9.866;2023-05-10T13:13:16;7.30;;;2.10;;
20271;SDS011;10295;49.812;9.866;2023-05-10T13:15:44;7.50;;;1.90;;
20271;SDS011;10295;49.812;9.866;2023-05-10T13:18:11;11.23;;;2.00;;
20271;SDS011;10295;49.812;9.866;2023-05-10T13:20:39;5.97;;;1.67;;
20271;SDS011;10295;49.812;9.866;2023-05-10T13:23:06;6.20;;;1.83;;
20271;SDS011;10295;49.812;9.866;2023-05-10T13:25:33;6.97;;;1.83;;
20271;SDS011;10295;49.812;9.866;2023-05-10T13:28:00;6.80;;;2.00;;
20271;SDS011;10295;49.812;9.866;2023-05-10T13:30:28;4.20;;;1.90;;
20271;SDS011;10295;49.812;9.866;2023-05-10T13:32:55;5.30;;;2.00;;
20271;SDS011;10295;49.812;9.866;2023-05-10T13:35:22;6.13;;;2.10;;
20271;SDS011;10295;49.812;9.866;2023-05-10T13:37:49;7.23;;;2.37;;
20271;SDS011;10295;49.812;9.866;2023-05-10T13:40:17;8.47;;;2.30;;
20271;SDS011;10295;49.812;9.866;2023-05-10T13:42:44;7.03;;;2.03;;
20271;SDS011;10295;49.812;9.866;2023-05-10T13:45:12;5.27;;;2.00;;
20271;SDS011;10295;49.812;9.866;2023-05-10T13:47:40;5.80;;;2.20;;
20271;SDS011;10295;49.812;9.866;2023-05-10T13:50:07;8.83;;;2.43;;
20271;SDS011;10295;49.812;9.866;2023-05-10T13:52:34;8.83;;;2.43;;
20271;SDS011;10295;49.812;9.866;2023-05-10T13:55:01;6.00;;;2.20;;
20271;SDS011;10295;49.812;9.866;2023-05-10T13:57:29;8.43;;;2.33;;
20271;SDS011;10295;49.812;9.866;2023-05-10T13:59:56;9.03;;;2.50;;
20271;SDS011;10295;49.812;9.866;2023-05-10T14:02:23;9.20;;;2.37;;
20271;SDS011;10295;49.812;9.866;2023-05-10T14:04:51;7.13;;;2.53;;
20271;SDS011;10295;49.812;9.866;2023-05-10T14:07:19;8.57;;;2.70;;
20271;SDS011;10295;49.812;9.866;2023-05-10T14:09:46;10.10;;;2.90;;
20271;SDS011;10295;49.812;9.866;2023-05-10T14:12:13;9.70;;;2.63;;
20271;SDS011;10295;49.812;9.866;2023-05-10T14:14:40;7.30;;;2.70;;
20271;SDS011;10295;49.812;9.866;2023-05-10T14:17:08;12.67;;;2.93;;
20271;SDS011;10295;49.812;9.866;2023-05-10T14:19:37;13.20;;;2.77;;
20271;SDS011;10295;49.812;9.866;2023-05-10T14:22:05;8.60;;;2.80;;
20271;SDS011;10295;49.812;9.866;2023-05-10T14:24:32;7.63;;;2.50;;
20271;SDS011;10295;49.812;9.866;2023-05-10T14:26:59;9.27;;;2.60;;
20271;SDS011;10295;49.812;9.866;2023-05-10T14:29:27;7.27;;;2.33;;
20271;SDS011;10295;49.812;9.866;2023-05-10T14:31:54;8.37;;;2.17;;
20271;SDS011;10295;49.812;9.866;2023-05-10T14:34:21;13.10;;;2.77;;
20271;SDS011;10295;49.812;9.866;2023-05-10T14:36:48;12.77;;;2.30;;
20271;SDS011;10295;49.812;9.866;2023-05-10T14:39:16;9.20;;;2.30;;
20271;SDS011;10295;49.812;9.866;2023-05-10T14:41:43;7.37;;;2.40;;
20271;SDS011;10295;49.812;9.866;2023-05-10T14:44:11;6.43;;;2.20;;
20271;SDS011;10295;49.812;9.866;2023-05-10T14:46:39;6.60;;;2.40;;
20271;SDS011;10295;49.812;9.866;2023-05-10T14:49:06;11.10;;;2.60;;
20271;SDS011;10295;49.812;9.866;2023-05-10T14:51:33;5.37;;;2.10;;
20271;SDS011;10295;49.812;9.866;2023-05-10T14:54:02;7.73;;;2.30;;
20271;SDS011;10295;49.812;9.866;2023-05-10T14:56:29;10.43;;;2.47;;
20271;SDS011;10295;49.812;9.866;2023-05-10T14:58:57;9.53;;;2.67;;
20271;SDS011;10295;49.812;9.866;2023-05-10T15:01:25;7.00;;;2.77;;
20271;SDS011;10295;49.812;9.866;2023-05-10T15:03:53;8.43;;;2.40;;
20271;SDS011;10295;49.812;9.866;2023-05-10T15:06:29;13.43;;;2.80;;
20271;SDS011;10295;49.812;9.866;2023-05-10T15:08:57;6.60;;;2.07;;
20271;SDS011;10295;49.812;9.866;2023-05-10T15:11:24;5.97;;;2.00;;
20271;SDS011;10295;49.812;9.866;2023-05-10T15:13:52;7.60;;;2.20;;
20271;SDS011;10295;49.812;9.866;2023-05-10T15:16:19;6.90;;;2.37;;
20271;SDS011;10295;49.812;9.866;2023-05-10T15:33:12;5.67;;;2.40;;
20271;SDS011;10295;49.812;9.866;2023-05-10T15:59:20;8.17;;;2.60;;
20271;SDS011;10295;49.812;9.866;2023-05-10T16:01:48;5.77;;;2.30;;
20271;SDS011;10295;49.812;9.866;2023-05-10T16:04:16;7.10;;;2.50;;